Time;durP1;ratioP1;P1;durP2;ratioP2;P2;SDS_P1;SDS_P2;PMS_P1;PMS_P2;Temp;Humidity;BMP_temperature;BMP_pressure;BME280_temperature;BME280_humidity;BME280_pressure;Samples;Min_cycle;Max_cycle;Signal;HPM_P1;HPM_P2
2021/12/23 00:02:00;;;;;;;13.93;8.95;;;-1.40;99.90;;;;;;5102286;28;20051;-68
2021/12/23 00:04:26;;;;;;;12.70;7.88;;;-1.40;99.90;;;;;;5095711;28;20442;-69
2021/12/23 00:06:55;;;;;;;14.82;8.68;;;-1.40;99.90;;;;;;5095267;28;20048;-68
2021/12/23 00:09:25;;;;;;;15.55;8.10;;;-1.40;99.90;;;;;;5093948;28;20105;-69
2021/12/23 00:11:52;;;;;;;;;;;-1.30;99.90;;;;;;5094785;28;20044;-69
2021/12/23 00:14:19;;;;;;;14.63;8.30;;;-1.30;99.90;;;;;;5094251;28;19920;-69
2021/12/23 00:16:47;;;;;;;13.57;8.45;;;-1.30;99.90;;;;;;5093738;28;20056;-69
2021/12/23 00:19:22;;;;;;;10.70;8.18;;;-1.30;99.90;;;;;;5094052;28;20079;-69
2021/12/23 00:24:35;;;;;;;18.92;8.35;;;-1.20;99.90;;;;;;5110862;28;20055;-69
2021/12/23 00:27:03;;;;;;;11.65;7.78;;;-1.20;99.90;;;;;;5129093;27;20400;-69
2021/12/23 00:29:30;;;;;;;13.38;8.70;;;-1.20;99.90;;;;;;5134462;27;20051;-69
2021/12/23 00:31:57;;;;;;;12.27;8.48;;;-1.20;99.90;;;;;;5134767;27;20092;-69
2021/12/23 00:34:24;;;;;;;12.70;8.75;;;-1.10;99.90;;;;;;5134599;27;20065;-69
2021/12/23 00:36:53;;;;;;;14.90;7.97;;;-1.10;99.90;;;;;;5133968;27;21091;-69
2021/12/23 00:39:19;;;;;;;15.93;8.90;;;-1.10;99.90;;;;;;5134454;27;20078;-69
2021/12/23 00:41:49;;;;;;;13.27;8.75;;;-1.10;99.90;;;;;;5135997;27;20047;-70
2021/12/23 00:44:16;;;;;;;14.75;8.57;;;-1.00;99.90;;;;;;5133767;27;20058;-69
2021/12/23 00:46:42;;;;;;;14.90;9.40;;;-1.00;99.90;;;;;;5134418;27;20111;-69
2021/12/23 00:49:09;;;;;;;15.23;8.48;;;-1.00;99.90;;;;;;5134117;27;20047;-69
2021/12/23 00:51:36;;;;;;;13.75;8.45;;;-1.00;99.90;;;;;;5133947;27;20476;-70
2021/12/23 00:54:05;;;;;;;15.35;8.32;;;-0.90;99.90;;;;;;5134126;27;20119;-67
2021/12/23 00:56:34;;;;;;;13.80;8.77;;;-0.90;99.90;;;;;;5115322;27;20135;-66
2021/12/23 00:59:03;;;;;;;14.73;8.80;;;-0.90;99.90;;;;;;5094860;27;20055;-67
2021/12/23 01:01:30;;;;;;;16.02;9.88;;;-0.80;99.90;;;;;;5116730;27;20055;-67
2021/12/23 01:03:56;;;;;;;16.58;9.13;;;-0.80;99.90;;;;;;5134863;27;20046;-68
2021/12/23 01:06:23;;;;;;;15.65;8.55;;;-0.80;99.90;;;;;;5137494;27;20038;-67
2021/12/23 01:08:50;;;;;;;12.70;9.20;;;-0.80;99.90;;;;;;5137592;27;20519;-67
2021/12/23 01:11:17;;;;;;;18.48;9.18;;;-0.80;99.90;;;;;;5136849;27;20613;-69
2021/12/23 01:13:59;;;;;;;15.73;8.88;;;-0.70;99.90;;;;;;5137217;27;20057;-69
2021/12/23 01:16:47;;;;;;;16.90;8.50;;;-0.80;99.90;;;;;;5137491;27;20100;-69
2021/12/23 01:19:14;;;;;;;15.70;9.48;;;-0.70;99.90;;;;;;5136455;27;20133;-68
2021/12/23 01:21:41;;;;;;;15.38;9.15;;;-0.70;99.90;;;;;;5136964;27;20047;-68
2021/12/23 01:24:09;;;;;;;14.95;9.32;;;-0.70;99.90;;;;;;5137071;27;20404;-69
2021/12/23 01:26:36;;;;;;;17.40;9.48;;;-0.70;99.90;;;;;;5151806;27;20476;-68
2021/12/23 01:29:04;;;;;;;12.57;8.50;;;-0.70;99.90;;;;;;5157946;27;20054;-69
2021/12/23 01:31:33;;;;;;;13.02;9.32;;;-0.70;99.90;;;;;;5157698;27;20062;-68
2021/12/23 01:34:00;;;;;;;18.65;9.32;;;-0.70;99.90;;;;;;5157009;27;20489;-68
2021/12/23 01:36:28;;;;;;;15.35;8.32;;;-0.70;99.90;;;;;;5176350;27;20042;-68
2021/12/23 01:38:55;;;;;;;16.60;9.55;;;-0.60;99.90;;;;;;5157631;27;20098;-68
2021/12/23 01:41:23;;;;;;;13.20;8.95;;;-0.60;99.90;;;;;;5157130;27;20058;-68
2021/12/23 01:43:51;;;;;;;14.77;9.27;;;-0.60;99.90;;;;;;5157149;27;20058;-68
2021/12/23 01:46:18;;;;;;;15.00;8.95;;;-0.60;99.90;;;;;;5156812;27;20046;-68
2021/12/23 01:48:47;;;;;;;14.90;9.60;;;-0.60;99.90;;;;;;5157485;27;20042;-69
2021/12/23 01:51:13;;;;;;;17.05;10.05;;;-0.60;99.90;;;;;;5157553;27;20400;-69
2021/12/23 01:53:41;;;;;;;16.27;10.82;;;-0.60;99.90;;;;;;5156646;27;20050;-69
2021/12/23 01:56:08;;;;;;;14.48;10.02;;;-0.60;99.90;;;;;;5141609;27;20043;-69
2021/12/23 01:58:36;;;;;;;15.80;10.60;;;-0.60;99.90;;;;;;5115950;27;20108;-69
2021/12/23 02:01:04;;;;;;;14.82;9.48;;;-0.60;99.90;;;;;;5115003;27;20059;-69
2021/12/23 02:03:31;;;;;;;16.00;9.43;;;-0.60;99.90;;;;;;5132855;27;20177;-69
2021/12/23 02:06:00;;;;;;;16.52;10.07;;;-0.50;99.90;;;;;;5115838;27;20120;-70
2021/12/23 02:08:26;;;;;;;14.38;10.05;;;-0.50;99.90;;;;;;5115090;27;20498;-69
2021/12/23 02:10:54;;;;;;;17.10;10.68;;;-0.50;99.90;;;;;;5114726;27;20055;-69
2021/12/23 02:13:22;;;;;;;14.25;9.35;;;-0.50;99.90;;;;;;5115232;27;20051;-68
2021/12/23 02:15:49;;;;;;;17.02;10.27;;;-0.60;99.90;;;;;;5126476;27;20099;-68
2021/12/23 02:18:16;;;;;;;19.23;10.57;;;-0.60;99.90;;;;;;5136003;27;20095;-68
2021/12/23 02:20:44;;;;;;;15.00;9.70;;;-0.60;99.90;;;;;;5136222;27;20066;-69
2021/12/23 02:23:11;;;;;;;18.63;11.45;;;-0.60;99.90;;;;;;5135342;27;20059;-69
2021/12/23 02:25:39;;;;;;;16.40;10.40;;;-0.60;99.90;;;;;;5145062;27;20447;-69
2021/12/23 02:28:08;;;;;;;16.95;10.25;;;-0.60;99.90;;;;;;5156949;27;20125;-67
2021/12/23 02:30:36;;;;;;;15.93;9.88;;;-0.60;99.90;;;;;;5154200;27;20042;-67
2021/12/23 02:33:04;;;;;;;15.00;10.18;;;-0.60;99.90;;;;;;5156713;27;20057;-68
2021/12/23 02:35:31;;;;;;;16.20;10.35;;;-0.60;99.90;;;;;;5155497;27;20094;-68
2021/12/23 02:37:59;;;;;;;15.32;9.77;;;-0.60;99.90;;;;;;5156597;27;20098;-68
2021/12/23 02:40:30;;;;;;;15.50;9.68;;;-0.60;99.90;;;;;;5156603;27;20164;-68
2021/12/23 02:42:58;;;;;;;15.68;10.77;;;-0.60;99.90;;;;;;5155699;27;20054;-68
2021/12/23 02:45:25;;;;;;;15.77;9.82;;;-0.60;99.90;;;;;;5160681;27;20123;-68
2021/12/23 02:47:52;;;;;;;17.13;11.25;;;-0.60;99.90;;;;;;5135210;27;20047;-68
2021/12/23 02:50:19;;;;;;;13.20;9.82;;;-0.70;99.90;;;;;;5135014;27;20127;-68
2021/12/23 02:52:46;;;;;;;16.02;10.32;;;-0.60;99.90;;;;;;5135279;27;20046;-68
2021/12/23 02:55:18;;;;;;;19.05;9.55;;;-0.70;99.90;;;;;;5154656;27;20054;-68
2021/12/23 02:57:46;;;;;;;16.30;9.75;;;-0.70;99.90;;;;;;5155815;27;20046;-68
2021/12/23 03:00:14;;;;;;;14.85;9.48;;;-0.60;99.90;;;;;;5155352;27;20046;-68
2021/12/23 03:02:42;;;;;;;19.92;9.88;;;-0.60;99.90;;;;;;5155686;27;20518;-68
2021/12/23 03:05:10;;;;;;;15.15;9.45;;;-0.60;99.90;;;;;;5155653;27;20061;-68
2021/12/23 03:07:36;;;;;;;14.65;9.95;;;-0.60;99.90;;;;;;5156068;27;20098;-68
2021/12/23 03:10:07;;;;;;;16.98;10.45;;;-0.60;99.90;;;;;;5156361;27;20374;-69
2021/12/23 03:12:35;;;;;;;16.35;9.88;;;-0.60;99.90;;;;;;5155322;27;20046;-68
2021/12/23 03:15:02;;;;;;;18.90;10.45;;;-0.60;99.90;;;;;;5155848;27;20081;-68
2021/12/23 03:17:30;;;;;;;18.90;10.70;;;-0.60;99.90;;;;;;5155646;27;20042;-68
2021/12/23 03:19:57;;;;;;;16.73;10.73;;;-0.60;99.90;;;;;;5155212;27;20074;-69
2021/12/23 03:22:24;;;;;;;17.13;10.43;;;-0.60;99.90;;;;;;5138718;27;20051;-68
2021/12/23 03:24:51;;;;;;;17.23;10.20;;;-0.60;99.90;;;;;;5138873;27;20146;-68
2021/12/23 03:27:18;;;;;;;17.23;10.05;;;-0.60;99.90;;;;;;5139391;27;20043;-68
2021/12/23 03:29:46;;;;;;;16.88;10.52;;;-0.60;99.90;;;;;;5139265;27;20110;-68
2021/12/23 03:32:13;;;;;;;16.75;10.10;;;-0.60;99.90;;;;;;5138959;27;20050;-68
2021/12/23 03:34:40;;;;;;;20.17;11.07;;;-0.60;99.90;;;;;;5139251;27;20443;-68
2021/12/23 03:37:07;;;;;;;17.60;11.18;;;-0.60;99.90;;;;;;5139280;27;20051;-68
2021/12/23 03:39:34;;;;;;;18.52;10.82;;;-0.60;99.90;;;;;;5138762;27;20095;-68
2021/12/23 03:42:00;;;;;;;17.23;11.30;;;-0.60;99.90;;;;;;5138968;27;20055;-68
2021/12/23 03:44:27;;;;;;;19.77;11.35;;;-0.60;99.90;;;;;;5139072;27;20054;-68
2021/12/23 03:46:56;;;;;;;16.38;10.43;;;-0.60;99.90;;;;;;5138228;27;20043;-68
2021/12/23 03:49:22;;;;;;;16.52;10.38;;;0.50;99.90;;;;;;5139151;27;20062;-68
2021/12/23 03:51:49;;;;;;;20.40;10.85;;;-0.60;99.90;;;;;;5139067;27;20128;-68
2021/12/23 03:54:16;;;;;;;17.13;10.82;;;-0.60;99.90;;;;;;5148975;27;20046;-68
2021/12/23 03:56:44;;;;;;;20.65;10.93;;;-0.60;99.90;;;;;;5159658;27;20050;-68
2021/12/23 03:59:11;;;;;;;17.00;10.23;;;-0.50;99.90;;;;;;5159327;27;20490;-68
2021/12/23 04:01:38;;;;;;;18.90;11.20;;;-0.50;99.90;;;;;;5158826;27;20042;-67
2021/12/23 04:04:06;;;;;;;18.15;10.77;;;-0.50;99.90;;;;;;5159133;27;20729;-67
2021/12/23 04:06:33;;;;;;;17.02;10.38;;;-0.50;99.90;;;;;;5159383;27;20054;-68
2021/12/23 04:09:00;;;;;;;19.00;11.63;;;-0.50;99.90;;;;;;5158806;27;20079;-68
2021/12/23 04:11:27;;;;;;;18.98;10.45;;;-0.50;99.90;;;;;;5159367;27;20094;-68
2021/12/23 04:13:55;;;;;;;20.45;11.32;;;-0.50;99.90;;;;;;5158363;27;20157;-69
2021/12/23 04:16:22;;;;;;;21.40;11.30;;;-0.50;99.90;;;;;;5159181;27;20453;-68
2021/12/23 04:18:50;;;;;;;17.50;10.35;;;-0.50;99.90;;;;;;5159302;27;20046;-67
2021/12/23 04:21:19;;;;;;;17.15;10.90;;;-0.50;99.90;;;;;;5158536;27;20052;-68
2021/12/23 04:23:46;;;;;;;21.05;12.10;;;-0.50;99.90;;;;;;5148613;27;20108;-68
2021/12/23 04:26:13;;;;;;;19.75;10.98;;;-0.50;99.90;;;;;;5117313;27;20503;-68
2021/12/23 04:28:46;;;;;;;17.77;11.30;;;-0.50;99.90;;;;;;5121484;27;20039;-68
2021/12/23 04:31:15;;;;;;;18.98;10.35;;;-0.50;99.90;;;;;;5138264;27;20055;-68
2021/12/23 04:33:42;;;;;;;17.77;10.68;;;-0.50;99.90;;;;;;5137023;27;20054;-68
2021/12/23 04:36:09;;;;;;;17.88;10.63;;;-0.50;99.90;;;;;;5137084;27;20559;-68
2021/12/23 04:38:39;;;;;;;16.58;11.00;;;-0.50;99.90;;;;;;5137810;27;20047;-68
2021/12/23 04:41:06;;;;;;;15.90;9.60;;;-0.50;99.90;;;;;;5138087;27;20054;-68
2021/12/23 04:43:33;;;;;;;17.25;11.55;;;-0.40;99.90;;;;;;5137395;27;20064;-68
2021/12/23 04:46:00;;;;;;;18.52;10.73;;;-0.40;99.90;;;;;;5137912;27;20150;-68
2021/12/23 04:48:27;;;;;;;17.98;10.65;;;-0.40;99.90;;;;;;5137761;27;20047;-68
2021/12/23 04:50:54;;;;;;;18.92;11.23;;;-0.40;99.90;;;;;;5136963;27;20128;-67
2021/12/23 04:53:20;;;;;;;19.23;11.05;;;-0.40;99.90;;;;;;5141152;27;20077;-67
2021/12/23 04:55:49;;;;;;;20.35;10.82;;;-0.40;99.90;;;;;;5158345;27;20518;-68
2021/12/23 04:58:16;;;;;;;17.63;10.82;;;-0.40;99.90;;;;;;5158041;27;20436;-67
2021/12/23 05:00:47;;;;;;;18.67;10.85;;;-0.40;99.90;;;;;;5158193;27;20058;-67
2021/12/23 05:03:14;;;;;;;;;;;-0.30;99.90;;;;;;5157912;27;20050;-67
2021/12/23 05:05:41;;;;;;;19.60;10.82;;;-0.40;99.90;;;;;;5158356;27;19918;-67
2021/12/23 05:08:08;;;;;;;18.52;11.10;;;-0.30;99.90;;;;;;5158137;27;20439;-67
2021/12/23 05:10:35;;;;;;;18.25;11.00;;;-0.30;99.90;;;;;;5157321;27;20042;-67
2021/12/23 05:13:03;;;;;;;17.20;10.98;;;-0.30;99.90;;;;;;5157965;27;20046;-67
2021/12/23 05:15:31;;;;;;;16.58;11.13;;;-0.20;99.90;;;;;;5158156;27;20056;-68
2021/12/23 05:17:58;;;;;;;19.17;10.20;;;-0.20;99.90;;;;;;5157492;27;20153;-67
2021/12/23 05:20:26;;;;;;;17.25;11.15;;;-0.20;99.90;;;;;;5157965;27;20050;-68
2021/12/23 05:22:53;;;;;;;18.38;10.32;;;-0.20;99.90;;;;;;5153909;27;20047;-68
2021/12/23 05:25:20;;;;;;;17.35;10.77;;;-0.10;99.90;;;;;;5139879;27;20104;-67
2021/12/23 05:27:52;;;;;;;19.13;10.80;;;-0.20;99.90;;;;;;5144502;27;20066;-66
2021/12/23 05:30:21;;;;;;;19.02;10.65;;;0.20;99.90;;;;;;5130951;27;20043;-68
2021/12/23 05:32:48;;;;;;;19.30;11.07;;;0.10;99.90;;;;;;5138743;27;20054;-68
2021/12/23 05:35:18;;;;;;;16.60;10.68;;;0.00;99.90;;;;;;5152234;27;20038;-67
2021/12/23 05:37:45;;;;;;;17.63;9.93;;;0.00;99.90;;;;;;5134329;27;20074;-67
2021/12/23 05:40:15;;;;;;;16.35;10.75;;;0.00;99.90;;;;;;5131171;27;20046;-67
2021/12/23 05:42:41;;;;;;;17.75;10.70;;;0.00;99.90;;;;;;5133768;27;20114;-67
2021/12/23 05:45:10;;;;;;;15.57;10.48;;;0.00;99.90;;;;;;5129600;27;20116;-67
2021/12/23 05:47:38;;;;;;;16.35;10.77;;;0.00;99.90;;;;;;5151677;27;20042;-67
2021/12/23 05:50:06;;;;;;;18.38;10.18;;;0.00;99.90;;;;;;5134122;27;20050;-67
2021/12/23 05:52:33;;;;;;;17.30;10.50;;;0.00;99.90;;;;;;5134116;27;20050;-68
2021/12/23 05:55:02;;;;;;;16.38;9.63;;;0.10;99.90;;;;;;5133740;27;20099;-67
2021/12/23 05:57:29;;;;;;;17.70;10.70;;;0.00;99.90;;;;;;5131312;27;20444;-67
2021/12/23 05:59:56;;;;;;;16.65;10.13;;;0.10;99.90;;;;;;5130573;27;20050;-67
2021/12/23 06:02:23;;;;;;;20.02;10.88;;;0.10;99.90;;;;;;5129080;27;20050;-67
2021/12/23 06:04:51;;;;;;;17.42;10.57;;;0.10;99.90;;;;;;5132528;27;20086;-67
2021/12/23 06:07:18;;;;;;;17.75;10.98;;;0.10;99.90;;;;;;5126910;27;20117;-67
2021/12/23 06:09:45;;;;;;;17.55;11.65;;;0.10;99.90;;;;;;5131676;27;20388;-67
2021/12/23 06:12:12;;;;;;;17.88;10.93;;;0.10;99.90;;;;;;5134164;27;20406;-68
2021/12/23 06:14:38;;;;;;;20.25;11.57;;;0.10;99.90;;;;;;5127116;27;20456;-67
2021/12/23 06:17:05;;;;;;;20.15;12.68;;;0.10;99.90;;;;;;5133837;27;20086;-67
2021/12/23 06:19:32;;;;;;;20.15;11.77;;;0.10;99.90;;;;;;5130904;27;20525;-67
2021/12/23 06:22:00;;;;;;;18.67;11.25;;;0.10;99.90;;;;;;5127897;27;20340;-67
2021/12/23 06:24:27;;;;;;;18.33;11.45;;;0.10;99.90;;;;;;5130374;27;20046;-67
2021/12/23 06:26:54;;;;;;;18.10;11.27;;;0.30;99.90;;;;;;5131463;27;20107;-67
2021/12/23 06:29:21;;;;;;;20.13;10.80;;;0.20;99.90;;;;;;5132379;27;20099;-67
2021/12/23 06:31:48;;;;;;;21.73;11.48;;;0.30;99.90;;;;;;5128648;27;20062;-68
2021/12/23 06:34:15;;;;;;;17.80;11.13;;;0.20;99.90;;;;;;5129731;27;20055;-68
2021/12/23 06:36:44;;;;;;;20.05;12.63;;;0.20;99.90;;;;;;5126821;27;20451;-68
2021/12/23 06:39:12;;;;;;;20.08;12.55;;;0.20;99.90;;;;;;5128386;27;20053;-68
2021/12/23 06:41:39;;;;;;;16.92;10.93;;;0.20;99.90;;;;;;5132004;27;20073;-75
2021/12/23 06:44:07;;;;;;;19.73;12.02;;;0.20;99.90;;;;;;5131462;27;20050;-67
2021/12/23 06:46:33;;;;;;;19.63;12.50;;;0.20;99.90;;;;;;5129324;27;20102;-67
2021/12/23 06:49:00;;;;;;;19.60;11.77;;;0.20;99.90;;;;;;5130481;27;20048;-67
2021/12/23 06:51:28;;;;;;;22.83;11.48;;;0.20;99.90;;;;;;5128168;27;20455;-68
2021/12/23 06:53:57;;;;;;;20.52;10.95;;;0.20;99.90;;;;;;5127381;27;20498;-68
2021/12/23 06:56:25;;;;;;;20.38;12.05;;;0.20;99.90;;;;;;5126888;27;20050;-68
2021/12/23 06:58:52;;;;;;;20.77;12.05;;;0.20;99.90;;;;;;5149870;27;20514;-68
2021/12/23 07:01:21;;;;;;;21.98;12.52;;;0.30;99.90;;;;;;5130041;27;20503;-69
2021/12/23 07:04:05;;;;;;;20.10;12.20;;;0.30;99.90;;;;;;5131036;27;20047;-68
2021/12/23 07:06:33;;;;;;;22.80;13.48;;;0.30;99.90;;;;;;5130420;27;20055;-68
2021/12/23 07:09:01;;;;;;;19.40;12.75;;;0.30;99.90;;;;;;5129231;27;20047;-69
2021/12/23 07:11:30;;;;;;;22.52;13.93;;;0.30;99.90;;;;;;5133636;27;20085;-69
2021/12/23 07:13:56;;;;;;;21.13;12.10;;;0.40;99.90;;;;;;5132512;27;20054;-68
2021/12/23 07:16:23;;;;;;;20.45;13.50;;;0.50;99.90;;;;;;5135814;27;20054;-68
2021/12/23 07:18:50;;;;;;;26.45;13.50;;;0.40;99.90;;;;;;5134034;27;20347;-68
2021/12/23 07:21:17;;;;;;;23.55;14.20;;;0.40;99.90;;;;;;5132976;27;20050;-68
2021/12/23 07:23:44;;;;;;;22.73;14.48;;;0.40;99.90;;;;;;5138576;27;20562;-68
2021/12/23 07:26:11;;;;;;;23.17;13.02;;;0.30;99.90;;;;;;5134121;27;20490;-68
2021/12/23 07:28:39;;;;;;;21.65;13.40;;;0.30;99.90;;;;;;5131063;27;20122;-68
2021/12/23 07:31:06;;;;;;;22.20;13.68;;;0.30;99.90;;;;;;5133149;27;20119;-68
2021/12/23 07:33:34;;;;;;;22.50;13.40;;;0.30;99.90;;;;;;5132897;27;20050;-68
2021/12/23 07:36:01;;;;;;;27.90;13.70;;;0.30;99.90;;;;;;5137105;27;20053;-69
2021/12/23 07:38:28;;;;;;;25.52;14.95;;;0.30;99.90;;;;;;5132661;27;20432;-68
2021/12/23 07:40:55;;;;;;;28.08;15.27;;;0.30;99.90;;;;;;5129066;27;20388;-68
2021/12/23 07:43:41;;;;;;;22.42;12.75;;;0.30;99.90;;;;;;5129837;27;20523;-68
2021/12/23 07:46:11;;;;;;;23.58;15.27;;;0.20;99.90;;;;;;5132763;27;20439;-68
2021/12/23 07:48:38;;;;;;;23.48;14.00;;;0.20;99.90;;;;;;5133094;27;20039;-68
2021/12/23 07:51:05;;;;;;;26.35;14.07;;;0.30;99.90;;;;;;5132892;27;20107;-68
2021/12/23 07:53:32;;;;;;;26.27;14.70;;;0.20;99.90;;;;;;5132781;27;20055;-67
2021/12/23 07:55:59;;;;;;;24.65;14.38;;;0.20;99.90;;;;;;5133010;27;20095;-68
2021/12/23 07:58:26;;;;;;;23.27;13.68;;;0.20;99.90;;;;;;5133191;27;20091;-67
2021/12/23 08:00:53;;;;;;;21.15;13.15;;;0.20;99.90;;;;;;5131699;27;20106;-68
2021/12/23 08:03:21;;;;;;;31.30;14.90;;;0.20;99.90;;;;;;5132971;27;20058;-68
2021/12/23 08:05:48;;;;;;;27.48;15.02;;;0.20;99.90;;;;;;5132912;27;20138;-68
2021/12/23 08:08:16;;;;;;;26.73;14.77;;;0.10;99.90;;;;;;5133744;27;20042;-68
2021/12/23 08:10:42;;;;;;;26.20;14.65;;;0.10;99.90;;;;;;5137112;27;20047;-68
2021/12/23 08:13:09;;;;;;;23.52;13.48;;;0.10;99.90;;;;;;5136361;27;20054;-67
2021/12/23 08:15:36;;;;;;;22.45;13.85;;;0.20;99.90;;;;;;5136705;27;20051;-68
2021/12/23 08:18:04;;;;;;;20.98;13.48;;;0.20;99.90;;;;;;5136944;27;20042;-68
2021/12/23 08:20:32;;;;;;;21.85;13.30;;;0.10;99.90;;;;;;5136353;27;20096;-68
2021/12/23 08:22:59;;;;;;;23.25;13.15;;;0.10;99.90;;;;;;5133435;27;20119;-68
2021/12/23 08:25:26;;;;;;;27.02;14.75;;;0.30;99.90;;;;;;5136457;27;20078;-68
2021/12/23 08:27:53;;;;;;;23.42;14.05;;;0.20;99.90;;;;;;5138317;27;20043;-69
2021/12/23 08:30:21;;;;;;;23.98;14.32;;;0.20;99.90;;;;;;5138588;27;20550;-68
2021/12/23 08:32:49;;;;;;;24.67;14.45;;;0.20;99.90;;;;;;5136354;27;20085;-67
2021/12/23 08:35:17;;;;;;;23.88;14.52;;;0.10;99.90;;;;;;5130129;27;20078;-67
2021/12/23 08:37:48;;;;;;;25.67;14.02;;;0.10;99.90;;;;;;5136801;27;20099;-67
2021/12/23 08:40:16;;;;;;;21.15;13.77;;;0.10;99.90;;;;;;5153758;27;20099;-68
2021/12/23 08:42:43;;;;;;;25.45;13.82;;;0.00;99.90;;;;;;5135889;27;20066;-68
2021/12/23 08:45:10;;;;;;;24.15;14.10;;;0.00;99.90;;;;;;5136058;27;20043;-68
2021/12/23 08:47:37;;;;;;;27.13;16.27;;;0.00;99.90;;;;;;5135967;27;20127;-67
2021/12/23 08:50:07;;;;;;;24.15;13.75;;;0.00;99.90;;;;;;5134993;27;20070;-67
2021/12/23 08:52:34;;;;;;;26.08;14.93;;;0.00;99.90;;;;;;5136197;27;20129;-68
2021/12/23 08:55:04;;;;;;;26.23;15.35;;;0.00;99.90;;;;;;5135745;27;20043;-67
2021/12/23 08:57:30;;;;;;;29.70;15.13;;;0.00;99.90;;;;;;5135371;27;20070;-69
2021/12/23 08:59:57;;;;;;;23.83;14.85;;;0.10;99.90;;;;;;5135452;27;20100;-68
2021/12/23 09:02:25;;;;;;;24.40;15.23;;;0.10;99.90;;;;;;5135474;27;20043;-67
2021/12/23 09:04:52;;;;;;;24.85;14.93;;;0.10;99.90;;;;;;5135960;27;20059;-68
2021/12/23 09:07:19;;;;;;;26.00;15.68;;;0.10;99.90;;;;;;5136351;27;20141;-68
2021/12/23 09:09:50;;;;;;;26.55;15.75;;;0.10;99.90;;;;;;5134734;27;20138;-67
2021/12/23 09:12:19;;;;;;;24.27;15.00;;;0.10;99.90;;;;;;5136551;27;20100;-68
2021/12/23 09:14:46;;;;;;;29.65;16.13;;;0.30;99.90;;;;;;5136225;27;20466;-67
2021/12/23 09:17:14;;;;;;;25.42;15.18;;;0.10;99.90;;;;;;5137622;27;20046;-67
2021/12/23 09:19:41;;;;;;;26.83;15.68;;;0.20;99.90;;;;;;5135489;27;20570;-69
2021/12/23 09:22:08;;;;;;;27.17;15.98;;;0.10;99.90;;;;;;5132376;27;20043;-68
2021/12/23 09:24:37;;;;;;;25.55;15.50;;;0.10;99.90;;;;;;5135173;27;20119;-67
2021/12/23 09:27:16;;;;;;;27.88;16.67;;;0.20;99.90;;;;;;5135713;27;20153;-67
2021/12/23 09:32:52;;;;;;;27.88;16.52;;;0.20;99.90;;;;;;5135445;27;20371;-67
2021/12/23 09:35:21;;;;;;;28.23;16.73;;;0.20;99.90;;;;;;5131521;27;20054;-68
2021/12/23 09:37:48;;;;;;;26.08;16.02;;;0.20;99.90;;;;;;5134536;27;20058;-67
2021/12/23 09:40:16;;;;;;;27.60;16.90;;;0.20;99.90;;;;;;5135614;27;20099;-67
2021/12/23 09:42:45;;;;;;;29.27;17.15;;;0.20;99.90;;;;;;5133677;27;20051;-68
2021/12/23 09:45:17;;;;;;;35.67;18.75;;;0.30;99.90;;;;;;5134501;27;20379;-68
2021/12/23 09:47:45;;;;;;;29.75;18.15;;;0.30;99.90;;;;;;5148639;27;20070;-68
2021/12/23 09:50:16;;;;;;;30.58;16.90;;;0.30;99.90;;;;;;5129210;27;20440;-67
2021/12/23 09:52:46;;;;;;;31.45;19.48;;;0.30;99.90;;;;;;5134655;27;20050;-69
2021/12/23 09:55:15;;;;;;;30.38;18.30;;;0.30;99.90;;;;;;5134874;27;20082;-68
2021/12/23 09:57:44;;;;;;;32.80;19.00;;;0.30;99.90;;;;;;5153857;27;20065;-68
2021/12/23 10:00:13;;;;;;;30.88;19.15;;;0.30;99.90;;;;;;5133955;27;20082;-68
2021/12/23 10:02:42;;;;;;;35.58;20.20;;;0.20;99.90;;;;;;5134048;27;20091;-68
2021/12/23 10:05:11;;;;;;;36.15;20.50;;;0.20;99.90;;;;;;5133281;27;20051;-68
2021/12/23 10:07:40;;;;;;;38.67;21.08;;;0.20;99.90;;;;;;5134252;27;20133;-67
2021/12/23 10:10:13;;;;;;;35.70;20.95;;;0.20;99.90;;;;;;5134262;27;20074;-67
2021/12/23 10:27:26;;;;;;;44.50;23.80;;;0.20;99.90;;;;;;5133765;27;20061;-68
2021/12/23 10:33:07;;;;;;;42.15;23.83;;;0.20;99.90;;;;;;5125677;27;20069;-70
2021/12/23 10:38:24;;;;;;;42.38;23.23;;;0.20;99.90;;;;;;5145640;27;20051;-69
2021/12/23 10:40:55;;;;;;;45.70;24.60;;;0.40;99.90;;;;;;5132414;27;20050;-69
2021/12/23 10:43:25;;;;;;;40.58;23.13;;;0.30;99.90;;;;;;5133839;27;20099;-70
2021/12/23 10:45:57;;;;;;;43.28;22.40;;;0.30;99.90;;;;;;5134013;27;20089;-69
2021/12/23 10:48:27;;;;;;;44.88;25.13;;;0.30;99.90;;;;;;5131415;27;20087;-68
2021/12/23 10:51:03;;;;;;;47.08;24.63;;;0.30;99.90;;;;;;5130158;27;20051;-67
2021/12/23 10:59:11;;;;;;;50.45;24.00;;;0.20;99.90;;;;;;5133817;27;20043;-68
2021/12/23 11:02:18;;;;;;;51.30;24.30;;;0.30;99.90;;;;;;5130728;27;20047;-68
2021/12/23 11:05:03;;;;;;;44.95;23.63;;;0.30;99.90;;;;;;5135207;27;20386;-68
2021/12/23 11:07:42;;;;;;;45.92;24.83;;;0.30;99.90;;;;;;5139274;27;20050;-69
2021/12/23 11:10:18;;;;;;;49.92;25.52;;;0.20;99.90;;;;;;5137610;27;20466;-67
2021/12/23 11:36:05;;;;;;;52.42;26.00;;;0.20;99.90;;;;;;5082615;27;20058;-68
2021/12/23 11:38:41;;;;;;;52.67;25.52;;;0.30;99.90;;;;;;5133463;27;20146;-68
2021/12/23 11:41:31;;;;;;;45.03;25.05;;;0.30;99.90;;;;;;5136297;27;20062;-68
2021/12/23 11:44:00;;;;;;;48.70;25.73;;;0.20;99.90;;;;;;5123880;27;20047;-68
2021/12/23 11:46:32;;;;;;;52.67;27.17;;;0.20;99.90;;;;;;5139829;27;20099;-67
2021/12/23 11:49:02;;;;;;;50.90;26.65;;;0.20;99.90;;;;;;5129445;27;20152;-67
2021/12/23 11:51:33;;;;;;;53.67;28.25;;;0.20;99.90;;;;;;5129991;27;20062;-67
2021/12/23 11:54:04;;;;;;;52.28;26.67;;;0.20;99.90;;;;;;5140887;27;20078;-67
2021/12/23 11:56:36;;;;;;;49.28;26.38;;;0.30;99.90;;;;;;5148870;27;20074;-66
2021/12/23 11:59:04;;;;;;;51.67;25.67;;;0.30;99.90;;;;;;5132803;27;20062;-66
2021/12/23 12:01:40;;;;;;;59.17;28.13;;;0.30;99.90;;;;;;5148611;27;21562;-66
2021/12/23 12:04:10;;;;;;;51.03;26.70;;;0.30;99.90;;;;;;5125846;27;20047;-66
2021/12/23 12:06:40;;;;;;;52.67;27.08;;;0.30;99.90;;;;;;5127174;27;20214;-67
2021/12/23 12:09:15;;;;;;;52.33;27.50;;;0.30;99.90;;;;;;5135022;27;20091;-66
2021/12/23 12:11:47;;;;;;;52.88;26.50;;;0.40;99.90;;;;;;5137435;27;20452;-67
2021/12/23 12:14:33;;;;;;;50.08;26.02;;;0.40;99.90;;;;;;5130784;27;20146;-67
2021/12/23 12:17:34;;;;;;;56.40;26.38;;;0.40;99.90;;;;;;5136830;27;20137;-67
2021/12/23 12:20:07;;;;;;;48.78;24.48;;;0.40;99.90;;;;;;5133107;27;20047;-67
2021/12/23 12:23:03;;;;;;;49.97;27.02;;;0.50;99.90;;;;;;5153332;27;20404;-67
2021/12/23 12:26:03;;;;;;;50.28;26.42;;;0.50;99.90;;;;;;5101078;27;20138;-67
2021/12/23 12:28:46;;;;;;;55.38;26.55;;;0.50;99.90;;;;;;5132798;27;20051;-67
2021/12/23 12:31:16;;;;;;;51.05;27.20;;;0.50;99.90;;;;;;5135383;27;20130;-67
2021/12/23 12:33:56;;;;;;;54.72;26.85;;;0.50;99.90;;;;;;5136171;27;20407;-67
2021/12/23 12:36:25;;;;;;;50.08;25.55;;;0.60;99.90;;;;;;5136807;27;20046;-68
2021/12/23 12:38:55;;;;;;;45.90;27.15;;;0.60;99.90;;;;;;5136859;27;20050;-68
2021/12/23 12:41:30;;;;;;;50.17;25.00;;;0.60;99.90;;;;;;5137851;27;20066;-67
2021/12/23 12:44:06;;;;;;;52.15;26.55;;;0.70;99.90;;;;;;5139151;27;20051;-68
2021/12/23 12:46:58;;;;;;;51.58;25.25;;;0.70;99.90;;;;;;5137911;27;20061;-68
2021/12/23 12:49:28;;;;;;;54.50;27.17;;;0.70;99.90;;;;;;5136202;27;20047;-67
2021/12/23 12:52:06;;;;;;;47.13;25.83;;;0.70;99.90;;;;;;5136313;27;20054;-68
2021/12/23 12:54:33;;;;;;;62.58;25.95;;;0.70;99.90;;;;;;5131662;27;20059;-67
2021/12/23 12:57:05;;;;;;;49.78;26.02;;;0.80;99.90;;;;;;5136072;27;20047;-67
2021/12/23 12:59:37;;;;;;;54.10;28.73;;;0.80;99.90;;;;;;5135944;27;20391;-67
2021/12/23 13:02:24;;;;;;;53.17;25.40;;;0.80;99.90;;;;;;5135866;27;20055;-67
2021/12/23 13:04:59;;;;;;;52.78;25.13;;;0.80;99.90;;;;;;5136345;27;20054;-67
2021/12/23 13:07:30;;;;;;;49.10;24.10;;;0.80;99.90;;;;;;5136041;27;20411;-67
2021/12/23 13:10:03;;;;;;;50.22;26.35;;;0.80;99.90;;;;;;5154233;27;20092;-67
2021/12/23 13:12:43;;;;;;;51.63;25.83;;;0.80;99.90;;;;;;5135836;27;20073;-67
2021/12/23 13:15:19;;;;;;;55.15;25.85;;;0.80;99.90;;;;;;5135823;27;20078;-67
2021/12/23 13:17:49;;;;;;;46.83;24.20;;;0.80;99.90;;;;;;5135410;27;20054;-67
2021/12/23 13:20:17;;;;;;;53.05;26.08;;;0.80;99.90;;;;;;5136118;27;20054;-67
2021/12/23 13:22:45;;;;;;;49.63;26.38;;;0.80;99.90;;;;;;5134814;27;20550;-67
2021/12/23 13:25:14;;;;;;;49.47;25.05;;;0.80;99.90;;;;;;5135841;27;20055;-67
2021/12/23 13:27:43;;;;;;;45.85;24.95;;;0.80;99.90;;;;;;5135617;27;20401;-67
2021/12/23 13:30:12;;;;;;;48.28;26.27;;;0.80;99.90;;;;;;5132022;27;20070;-67
2021/12/23 13:32:39;;;;;;;52.85;24.33;;;0.80;99.90;;;;;;5133897;27;20137;-67
2021/12/23 13:35:11;;;;;;;52.47;26.65;;;0.80;99.90;;;;;;5135860;27;20085;-67
2021/12/23 13:37:43;;;;;;;51.92;26.33;;;0.80;99.90;;;;;;5134693;27;20046;-67
2021/12/23 13:40:11;;;;;;;58.50;27.80;;;0.80;99.90;;;;;;5135721;27;20099;-68
2021/12/23 13:42:40;;;;;;;53.65;26.63;;;0.80;99.90;;;;;;5134822;27;20043;-68